Time;durP1;ratioP1;P1;durP2;ratioP2;P2;SDS_P1;SDS_P2;PMS_P1;PMS_P2;Temp;Humidity;BMP_temperature;BMP_pressure;BME280_temperature;BME280_humidity;BME280_pressure;Samples;Min_cycle;Max_cycle;Signal;HPM_P1;HPM_P2
2021/05/29 00:01:15;;;;;;;3.03;1.50;;;18.00;52.90;;;;;;4128648;28;20021;-70
2021/05/29 00:03:17;;;;;;;4.13;1.40;;;18.40;52.30;;;;;;4126126;28;20172;-63
2021/05/29 00:05:19;;;;;;;3.55;1.65;;;18.80;51.80;;;;;;4127525;28;20146;-65
2021/05/29 00:07:21;;;;;;;3.90;1.23;;;19.20;51.20;;;;;;4128435;28;20092;-64
2021/05/29 00:09:24;;;;;;;5.10;1.40;;;19.40;50.70;;;;;;4125320;28;20267;-66
2021/05/29 00:11:26;;;;;;;2.67;1.10;;;19.70;50.40;;;;;;4119131;28;20147;-64
2021/05/29 00:13:29;;;;;;;3.50;1.15;;;19.60;49.90;;;;;;4111780;28;20037;-66
2021/05/29 00:15:31;;;;;;;4.30;1.42;;;19.40;50.10;;;;;;4126550;28;20049;-69
2021/05/29 00:17:34;;;;;;;8.85;1.80;;;19.30;50.60;;;;;;4119861;28;20038;-71
2021/05/29 00:19:36;;;;;;;6.18;1.35;;;19.40;50.30;;;;;;4116044;28;20131;-69
2021/05/29 00:21:39;;;;;;;7.22;1.17;;;19.70;50.00;;;;;;4113123;28;20994;-71
2021/05/29 00:23:41;;;;;;;2.70;1.00;;;20.00;49.40;;;;;;4134978;28;20072;-72
2021/05/29 00:25:44;;;;;;;3.15;1.10;;;;;;;;;;4124751;28;20382;-71
2021/05/29 00:27:46;;;;;;;3.20;1.20;;;20.30;48.80;;;;;;4112377;28;20468;-66
2021/05/29 00:29:48;;;;;;;4.50;1.38;;;20.90;47.90;;;;;;4108670;28;20240;-65
2021/05/29 00:31:50;;;;;;;3.42;1.33;;;20.90;47.40;;;;;;4109092;28;20034;-64
2021/05/29 00:33:53;;;;;;;2.10;1.40;;;20.70;47.70;;;;;;4120200;28;20112;-71
2021/05/29 00:35:55;;;;;;;4.30;1.25;;;20.40;48.10;;;;;;4117202;28;20034;-67
2021/05/29 00:37:57;;;;;;;5.60;1.38;;;20.30;48.80;;;;;;4109175;28;20037;-70
2021/05/29 00:39:59;;;;;;;3.97;1.33;;;20.50;48.80;;;;;;4114977;28;20061;-68
2021/05/29 00:42:01;;;;;;;4.78;1.02;;;20.60;48.10;;;;;;4120183;28;20160;-70
2021/05/29 00:44:04;;;;;;;1.90;1.02;;;20.60;48.00;;;;;;4128795;28;20470;-68
2021/05/29 00:46:06;;;;;;;5.57;1.30;;;20.40;48.10;;;;;;4127216;28;20026;-65
2021/05/29 00:48:08;;;;;;;3.47;1.15;;;20.30;48.90;;;;;;4129198;28;20046;-72
2021/05/29 00:50:13;;;;;;;3.55;1.00;;;20.40;49.00;;;;;;4127620;28;20347;-69
2021/05/29 00:52:16;;;;;;;2.85;1.50;;;20.50;48.20;;;;;;4132406;28;20044;-70
2021/05/29 00:54:18;;;;;;;4.78;1.40;;;20.50;48.20;;;;;;4122435;28;20570;-69
2021/05/29 00:56:23;;;;;;;2.70;1.08;;;20.30;48.90;;;;;;4126423;28;20033;-70
2021/05/29 00:58:26;;;;;;;5.20;1.50;;;20.30;49.20;;;;;;4126176;28;20056;-66
2021/05/29 01:00:29;;;;;;;4.53;1.45;;;20.60;49.00;;;;;;4124905;28;20176;-70
2021/05/29 01:02:31;;;;;;;2.88;1.25;;;21.00;48.40;;;;;;4124759;28;20621;-70
2021/05/29 01:04:33;;;;;;;5.97;1.25;;;21.30;48.60;;;;;;4128272;28;20853;-67
2021/05/29 01:06:35;;;;;;;6.63;1.42;;;21.40;47.10;;;;;;4128898;28;20243;-69
2021/05/29 01:08:37;;;;;;;10.98;1.98;;;21.20;47.10;;;;;;4121471;28;20095;-65
2021/05/29 01:10:39;;;;;;;4.68;1.40;;;21.00;47.30;;;;;;4110509;28;20216;-64
2021/05/29 01:12:41;;;;;;;6.23;1.57;;;20.80;48.00;;;;;;4108290;28;20152;-71
2021/05/29 01:14:53;;;;;;;3.60;1.40;;;20.80;48.00;;;;;;4116427;28;20045;-68
2021/05/29 01:17:04;;;;;;;4.07;1.48;;;20.80;47.50;;;;;;4127575;28;20213;-67
2021/05/29 01:19:06;;;;;;;4.88;1.60;;;20.70;47.80;;;;;;4128114;28;20827;-69
2021/05/29 01:21:08;;;;;;;8.60;1.45;;;20.70;48.10;;;;;;4127048;28;20115;-60
2021/05/29 01:23:12;;;;;;;8.02;1.63;;;20.90;48.00;;;;;;4123846;28;20462;-60
2021/05/29 01:25:38;;;;;;;7.15;1.90;;;21.10;47.40;;;;;;4111063;28;21122;-58
2021/05/29 01:27:41;;;;;;;14.93;1.98;;;21.00;46.90;;;;;;4110992;28;20607;-60
2021/05/29 01:29:45;;;;;;;23.08;2.70;;;20.80;46.90;;;;;;4119230;28;20118;-60
2021/05/29 01:31:51;;;;;;;6.85;1.88;;;20.70;47.30;;;;;;4127517;28;20540;-61
2021/05/29 01:33:58;;;;;;;6.00;1.60;;;20.50;45.90;;;;;;4129167;28;20034;-61
2021/05/29 01:36:06;;;;;;;3.58;1.50;;;20.20;45.20;;;;;;4125606;28;20064;-62
2021/05/29 01:38:09;;;;;;;5.00;1.70;;;20.00;45.20;;;;;;4140284;28;20131;-61
2021/05/29 01:40:12;;;;;;;12.88;1.73;;;19.80;45.40;;;;;;4129139;28;20336;-61
2021/05/29 01:42:14;;;;;;;4.03;1.60;;;19.60;45.60;;;;;;4114790;28;20573;-62
2021/05/29 01:44:16;;;;;;;5.80;1.52;;;19.50;45.60;;;;;;4110298;28;20064;-61
2021/05/29 01:46:21;;;;;;;3.40;1.55;;;19.30;46.20;;;;;;4110849;28;20456;-60
2021/05/29 01:48:27;;;;;;;5.57;1.55;;;19.20;46.30;;;;;;4107864;28;20494;-61
2021/05/29 01:50:29;;;;;;;3.33;1.30;;;19.10;46.80;;;;;;4119633;28;20037;-62
2021/05/29 01:53:04;;;;;;;3.75;1.20;;;18.90;46.80;;;;;;4126372;28;20083;-61
2021/05/29 01:55:07;;;;;;;3.55;1.40;;;18.80;47.30;;;;;;4088976;28;20446;-61
2021/05/29 01:57:09;;;;;;;3.08;1.33;;;18.70;47.30;;;;;;4119697;28;20734;-61
2021/05/29 01:59:11;;;;;;;2.95;1.45;;;18.60;47.60;;;;;;4124196;28;20092;-62
2021/05/29 02:01:15;;;;;;;2.67;1.30;;;18.50;47.70;;;;;;4119083;28;20037;-61
2021/05/29 02:03:17;;;;;;;3.63;1.30;;;18.50;47.90;;;;;;4125218;28;20044;-61
2021/05/29 02:05:21;;;;;;;5.82;1.60;;;18.40;48.10;;;;;;4124375;28;20521;-61
2021/05/29 02:07:25;;;;;;;;;;;18.30;48.20;;;;;;4127721;28;20057;-61
2021/05/29 02:09:28;;;;;;;2.75;1.23;;;18.20;48.50;;;;;;4109257;28;20836;-61
2021/05/29 02:11:30;;;;;;;2.15;1.13;;;18.20;48.60;;;;;;4119199;28;20049;-61
2021/05/29 02:13:37;;;;;;;4.13;1.20;;;18.10;48.70;;;;;;4124744;28;20821;-60
2021/05/29 02:15:41;;;;;;;3.05;1.30;;;18.00;48.80;;;;;;4125937;28;20060;-61
2021/05/29 02:17:46;;;;;;;3.53;1.40;;;17.90;48.90;;;;;;4125332;28;20238;-61
2021/05/29 02:19:48;;;;;;;3.28;1.23;;;17.90;49.00;;;;;;4125282;28;20021;-61
2021/05/29 02:21:50;;;;;;;2.80;1.40;;;17.90;49.20;;;;;;4129943;28;20515;-61
2021/05/29 02:23:52;;;;;;;5.88;1.42;;;17.80;49.30;;;;;;4124684;28;20045;-61
2021/05/29 02:25:58;;;;;;;2.33;1.00;;;17.70;49.40;;;;;;4131356;28;20019;-62
2021/05/29 02:28:00;;;;;;;1.75;1.20;;;17.70;49.50;;;;;;4145887;28;20045;-63
2021/05/29 02:30:06;;;;;;;2.05;1.25;;;17.60;49.70;;;;;;4132175;28;20060;-63
2021/05/29 02:32:08;;;;;;;3.90;1.50;;;17.60;49.80;;;;;;4128028;28;20464;-60
2021/05/29 02:34:11;;;;;;;4.22;1.65;;;17.50;50.00;;;;;;4131723;28;20038;-59
2021/05/29 02:36:13;;;;;;;3.40;1.35;;;17.50;50.10;;;;;;4128832;28;20267;-61
2021/05/29 02:38:15;;;;;;;5.07;1.40;;;17.50;50.70;;;;;;4130776;28;20579;-60
2021/05/29 02:40:18;;;;;;;3.50;1.88;;;17.40;50.40;;;;;;4131309;28;20894;-62
2021/05/29 02:42:20;;;;;;;3.40;1.40;;;17.40;50.60;;;;;;4118689;28;20119;-61
2021/05/29 02:44:22;;;;;;;2.47;1.67;;;17.30;50.50;;;;;;4119872;28;20132;-61
2021/05/29 02:46:24;;;;;;;3.47;1.52;;;17.30;50.70;;;;;;4135306;28;20033;-61
2021/05/29 02:48:26;;;;;;;3.65;1.58;;;17.20;50.80;;;;;;4119229;28;20056;-61
2021/05/29 02:50:28;;;;;;;2.42;1.50;;;17.20;50.90;;;;;;4140990;28;20080;-61
2021/05/29 02:52:31;;;;;;;2.67;1.27;;;17.20;50.90;;;;;;4141173;28;20352;-61
2021/05/29 02:54:34;;;;;;;7.03;1.98;;;17.10;51.10;;;;;;4138119;28;20064;-61
2021/05/29 02:56:36;;;;;;;3.03;1.40;;;17.10;51.20;;;;;;4137687;28;20118;-60
2021/05/29 02:58:38;;;;;;;3.55;1.50;;;17.10;51.20;;;;;;4138925;28;20025;-61
2021/05/29 03:00:43;;;;;;;3.38;1.65;;;17.10;51.20;;;;;;4130527;28;20033;-60
2021/05/29 03:02:45;;;;;;;2.97;1.52;;;17.00;51.50;;;;;;4131924;28;20052;-60
2021/05/29 03:04:47;;;;;;;3.47;1.35;;;17.00;51.60;;;;;;4129287;28;20399;-60
2021/05/29 03:06:49;;;;;;;4.65;1.73;;;17.00;51.60;;;;;;4132092;28;20331;-61
2021/05/29 03:08:51;;;;;;;2.42;1.40;;;17.00;51.60;;;;;;4130259;28;20727;-60
2021/05/29 03:10:54;;;;;;;3.92;1.77;;;16.90;51.70;;;;;;4130825;28;20029;-61
2021/05/29 03:12:56;;;;;;;3.10;1.60;;;16.90;51.70;;;;;;4122593;28;20352;-60
2021/05/29 03:14:58;;;;;;;2.70;1.60;;;16.90;52.00;;;;;;4123692;28;20135;-62
2021/05/29 03:17:00;;;;;;;2.25;1.33;;;16.80;51.90;;;;;;4124375;28;24053;-61
2021/05/29 03:19:03;;;;;;;4.25;1.55;;;16.80;51.80;;;;;;4125287;28;21110;-61
2021/05/29 03:21:05;;;;;;;2.90;1.60;;;16.80;52.10;;;;;;4121501;28;20041;-60
2021/05/29 03:23:07;;;;;;;3.10;1.48;;;16.70;52.00;;;;;;4123032;28;20557;-61
2021/05/29 03:25:10;;;;;;;3.25;1.60;;;16.70;52.30;;;;;;4132610;28;20550;-61
2021/05/29 03:27:17;;;;;;;3.60;1.60;;;16.70;52.20;;;;;;4115968;28;21145;-61
2021/05/29 03:29:19;;;;;;;2.83;1.42;;;16.70;52.30;;;;;;4116075;28;20037;-61
2021/05/29 03:31:21;;;;;;;2.83;1.50;;;16.70;52.40;;;;;;4114079;28;20101;-61
2021/05/29 03:33:23;;;;;;;2.35;1.30;;;16.70;52.90;;;;;;4126547;28;20049;-61
2021/05/29 03:35:27;;;;;;;3.67;1.60;;;16.70;52.20;;;;;;4126220;28;20049;-61
2021/05/29 03:37:29;;;;;;;2.78;1.60;;;16.60;52.10;;;;;;4130525;28;20311;-61
2021/05/29 03:39:31;;;;;;;3.35;1.95;;;16.60;52.20;;;;;;4126228;28;20357;-61
2021/05/29 03:41:36;;;;;;;3.38;1.58;;;16.60;52.30;;;;;;4122474;28;20365;-61
2021/05/29 03:43:41;;;;;;;5.70;2.10;;;16.60;52.40;;;;;;4113692;28;20667;-62
2021/05/29 03:45:43;;;;;;;5.72;2.00;;;16.60;52.50;;;;;;4128713;28;20507;-61
2021/05/29 03:47:46;;;;;;;3.63;2.00;;;16.60;52.60;;;;;;4120758;28;20044;-61
2021/05/29 03:49:48;;;;;;;3.70;1.90;;;16.60;53.00;;;;;;4121398;28;20063;-61
2021/05/29 03:51:51;;;;;;;5.97;2.00;;;16.60;53.10;;;;;;4130246;28;20106;-61
2021/05/29 03:53:53;;;;;;;4.78;1.98;;;16.60;53.40;;;;;;4129325;28;20037;-61
2021/05/29 03:55:56;;;;;;;6.25;2.30;;;16.60;53.10;;;;;;4128706;28;20025;-61
2021/05/29 03:57:58;;;;;;;6.15;2.60;;;16.60;53.20;;;;;;4129335;28;20025;-60
2021/05/29 04:00:00;;;;;;;6.40;1.98;;;16.50;53.10;;;;;;4125833;28;20092;-61
2021/05/29 04:02:02;;;;;;;3.75;1.95;;;16.50;53.10;;;;;;4127806;28;20160;-62
2021/05/29 04:04:06;;;;;;;5.88;1.83;;;16.50;53.10;;;;;;4129133;28;20021;-61
2021/05/29 04:06:07;;;;;;;;;;;16.50;53.30;;;;;;4118061;28;20155;-61
2021/05/29 04:08:10;;;;;;;5.30;1.65;;;16.50;53.30;;;;;;4113570;28;19921;-61
2021/05/29 04:10:14;;;;;;;4.60;1.90;;;16.50;53.30;;;;;;4132428;28;20880;-62
2021/05/29 04:12:17;;;;;;;6.93;1.70;;;16.50;53.30;;;;;;4128118;28;20559;-61
2021/05/29 04:14:19;;;;;;;4.28;1.50;;;16.40;53.30;;;;;;4128186;28;20759;-61
2021/05/29 04:16:21;;;;;;;4.72;2.00;;;16.40;53.20;;;;;;4126218;28;20039;-60
2021/05/29 04:18:24;;;;;;;3.25;1.60;;;16.50;53.50;;;;;;4123750;28;20410;-60
2021/05/29 04:20:28;;;;;;;4.30;1.88;;;16.40;53.90;;;;;;4115806;28;20628;-61
2021/05/29 04:22:30;;;;;;;4.10;1.95;;;16.40;54.00;;;;;;4114746;28;20041;-61
2021/05/29 04:24:33;;;;;;;3.72;1.95;;;16.40;54.20;;;;;;4125699;28;20451;-61
2021/05/29 04:26:35;;;;;;;5.03;1.90;;;16.40;54.50;;;;;;4129819;28;20144;-60
2021/05/29 04:28:38;;;;;;;4.40;2.13;;;16.40;54.50;;;;;;4130165;28;20355;-61
2021/05/29 04:30:41;;;;;;;6.32;1.77;;;16.40;54.30;;;;;;4142129;28;20277;-61
2021/05/29 04:32:43;;;;;;;8.10;1.83;;;16.40;54.20;;;;;;4131564;28;20137;-61
2021/05/29 04:34:45;;;;;;;2.92;1.85;;;16.40;54.30;;;;;;4128757;28;20665;-61
2021/05/29 04:36:47;;;;;;;4.15;1.70;;;16.30;54.20;;;;;;4123463;28;20034;-62
2021/05/29 04:38:49;;;;;;;5.22;1.80;;;16.30;54.20;;;;;;4126038;28;20088;-62
2021/05/29 04:40:51;;;;;;;2.53;1.70;;;16.30;54.20;;;;;;4128330;28;20037;-62
2021/05/29 04:42:55;;;;;;;4.65;1.50;;;16.30;54.20;;;;;;4131331;28;20711;-62
2021/05/29 04:44:56;;;;;;;;;;;16.30;54.10;;;;;;4130790;28;20144;-62
2021/05/29 04:47:01;;;;;;;5.07;1.90;;;16.30;54.10;;;;;;4128269;28;19917;-61
2021/05/29 04:49:03;;;;;;;4.00;1.70;;;16.30;54.10;;;;;;4130954;28;20478;-62
2021/05/29 04:51:12;;;;;;;3.78;1.50;;;16.30;54.10;;;;;;4115837;28;20037;-62
2021/05/29 04:53:14;;;;;;;6.70;2.05;;;16.30;54.70;;;;;;4114343;28;20680;-62
2021/05/29 04:55:17;;;;;;;4.80;1.60;;;16.30;54.10;;;;;;4113556;28;20130;-62
2021/05/29 04:57:19;;;;;;;4.47;1.58;;;16.30;54.00;;;;;;4116378;28;20143;-62
2021/05/29 04:59:22;;;;;;;2.97;1.73;;;16.20;54.00;;;;;;4118112;28;20436;-62
2021/05/29 05:01:29;;;;;;;4.13;1.58;;;16.20;54.00;;;;;;4132164;28;20281;-62
2021/05/29 05:03:31;;;;;;;4.45;1.67;;;16.20;54.00;;;;;;4129908;28;20554;-61
2021/05/29 05:05:33;;;;;;;3.20;1.42;;;16.20;54.00;;;;;;4128639;28;20174;-61
2021/05/29 05:07:37;;;;;;;1.75;1.23;;;16.20;53.90;;;;;;4128776;28;20029;-62
2021/05/29 05:09:39;;;;;;;3.65;1.25;;;16.20;54.00;;;;;;4128436;28;21479;-61
2021/05/29 05:11:41;;;;;;;3.85;1.63;;;16.20;53.90;;;;;;4129374;28;20061;-61
2021/05/29 05:13:43;;;;;;;4.63;1.75;;;16.20;54.00;;;;;;4127579;28;20069;-61
2021/05/29 05:15:46;;;;;;;5.80;1.65;;;16.20;54.10;;;;;;4129548;28;20040;-60
2021/05/29 05:17:48;;;;;;;4.65;1.65;;;16.20;54.10;;;;;;4125886;28;20440;-62
2021/05/29 05:19:50;;;;;;;4.53;1.55;;;16.20;54.20;;;;;;4130681;28;20134;-61
2021/05/29 05:21:52;;;;;;;4.43;1.90;;;16.20;54.10;;;;;;4128986;28;20060;-61
2021/05/29 05:23:56;;;;;;;4.18;1.42;;;16.20;54.10;;;;;;4118489;28;20649;-62
2021/05/29 05:25:58;;;;;;;3.95;1.63;;;16.20;54.10;;;;;;4115179;28;20136;-61
2021/05/29 05:28:00;;;;;;;6.05;1.63;;;16.20;54.10;;;;;;4130617;28;20071;-61
2021/05/29 05:30:07;;;;;;;4.68;1.60;;;16.20;54.30;;;;;;4126911;28;20041;-62
2021/05/29 05:32:09;;;;;;;5.05;2.10;;;16.20;54.40;;;;;;4126241;28;20592;-61
2021/05/29 05:34:12;;;;;;;6.72;1.92;;;16.20;54.50;;;;;;4131031;28;20573;-61
2021/05/29 05:36:15;;;;;;;8.52;2.05;;;16.20;54.60;;;;;;4126937;28;20542;-61
2021/05/29 05:38:17;;;;;;;4.53;2.07;;;16.20;54.80;;;;;;4119995;28;20570;-61
2021/05/29 05:40:20;;;;;;;5.28;2.22;;;16.20;54.80;;;;;;4114346;28;20267;-61
2021/05/29 05:42:22;;;;;;;6.57;2.05;;;16.20;55.50;;;;;;4124160;28;20197;-62
2021/05/29 05:44:24;;;;;;;4.55;1.77;;;16.20;56.10;;;;;;4121022;28;20038;-61
2021/05/29 05:46:26;;;;;;;8.02;2.20;;;16.20;56.70;;;;;;4113113;28;20490;-61
2021/05/29 05:48:28;;;;;;;4.78;2.17;;;16.20;57.00;;;;;;4126054;28;20403;-61
2021/05/29 05:50:31;;;;;;;4.47;1.75;;;16.20;56.90;;;;;;4123806;28;20403;-61
2021/05/29 05:52:33;;;;;;;5.27;1.90;;;16.20;56.80;;;;;;4118736;28;20200;-61
2021/05/29 05:54:35;;;;;;;5.80;2.33;;;16.20;57.10;;;;;;4112808;28;20699;-61
2021/05/29 05:56:37;;;;;;;4.43;2.20;;;16.20;57.00;;;;;;4117640;28;20049;-62
2021/05/29 05:58:39;;;;;;;6.25;2.05;;;16.20;57.20;;;;;;4127886;28;20037;-62
2021/05/29 06:00:42;;;;;;;5.78;2.25;;;16.20;57.30;;;;;;4111550;28;20373;-62
2021/05/29 06:02:46;;;;;;;7.93;2.33;;;16.20;57.20;;;;;;4113722;28;20875;-61
2021/05/29 06:04:48;;;;;;;7.47;2.50;;;16.20;57.60;;;;;;4108318;28;20537;-62
2021/05/29 06:06:50;;;;;;;7.57;2.03;;;16.20;57.70;;;;;;4113493;28;20029;-63
2021/05/29 06:08:53;;;;;;;4.47;1.92;;;16.20;58.00;;;;;;4116043;28;20137;-60
2021/05/29 06:10:55;;;;;;;6.60;2.28;;;16.20;58.00;;;;;;4121931;28;20462;-61
2021/05/29 06:12:57;;;;;;;5.25;1.88;;;16.20;58.00;;;;;;4116414;28;20034;-61
2021/05/29 06:19:41;;;;;;;4.68;2.10;;;16.20;57.80;;;;;;4118027;28;20614;-61
2021/05/29 06:21:48;;;;;;;4.70;1.98;;;16.20;57.70;;;;;;4106793;28;20082;-61
2021/05/29 06:23:50;;;;;;;6.57;2.00;;;16.20;57.60;;;;;;4109205;28;20515;-61
2021/05/29 06:25:52;;;;;;;6.75;2.03;;;16.20;57.80;;;;;;4114189;28;20597;-62
2021/05/29 06:27:54;;;;;;;5.03;2.08;;;16.20;57.80;;;;;;4126151;28;20448;-61
2021/05/29 06:29:56;;;;;;;5.57;2.10;;;16.20;57.90;;;;;;4125789;28;20050;-62
2021/05/29 06:31:59;;;;;;;4.47;1.90;;;16.20;58.00;;;;;;4128528;28;20244;-62
2021/05/29 06:34:02;;;;;;;4.88;1.90;;;16.20;58.20;;;;;;4129844;28;20829;-62
2021/05/29 06:36:05;;;;;;;6.53;2.08;;;16.20;58.10;;;;;;4114388;28;21365;-61
2021/05/29 06:38:07;;;;;;;4.60;1.92;;;16.20;58.20;;;;;;4113009;28;20030;-61
2021/05/29 06:40:09;;;;;;;7.03;2.20;;;16.20;58.20;;;;;;4112784;28;20033;-62
2021/05/29 06:42:15;;;;;;;4.32;1.85;;;16.20;58.10;;;;;;4123414;28;20111;-62
2021/05/29 06:44:17;;;;;;;4.60;1.77;;;16.20;58.10;;;;;;4122023;28;20050;-60
2021/05/29 06:46:19;;;;;;;2.65;1.58;;;16.20;58.00;;;;;;4114197;28;20403;-60
2021/05/29 06:48:23;;;;;;;5.07;1.70;;;16.20;58.00;;;;;;4111063;28;20787;-62
2021/05/29 06:50:26;;;;;;;6.82;1.90;;;16.20;58.50;;;;;;4111858;28;20493;-61
2021/05/29 06:52:30;;;;;;;3.65;1.88;;;16.20;57.80;;;;;;4116431;28;20139;-63
2021/05/29 06:59:13;;;;;;;3.47;1.45;;;16.20;57.50;;;;;;4120690;28;20500;-62
2021/05/29 07:01:16;;;;;;;5.13;1.85;;;16.20;57.40;;;;;;4129299;28;20984;-62
2021/05/29 07:03:19;;;;;;;6.40;1.67;;;16.20;57.30;;;;;;4133889;28;20038;-61
2021/05/29 07:05:27;;;;;;;3.80;1.70;;;16.20;57.30;;;;;;4101591;28;20152;-60
2021/05/29 07:07:30;;;;;;;3.78;1.80;;;16.20;57.30;;;;;;4149629;28;20033;-61
2021/05/29 07:09:33;;;;;;;4.43;2.05;;;16.20;57.40;;;;;;4129702;28;20160;-61
2021/05/29 07:11:39;;;;;;;3.70;1.75;;;16.20;57.60;;;;;;4135734;28;21248;-61
2021/05/29 07:13:41;;;;;;;3.38;1.70;;;16.20;58.40;;;;;;4134473;28;20083;-62
2021/05/29 07:15:44;;;;;;;3.10;1.55;;;16.20;58.00;;;;;;4107639;28;20037;-62
2021/05/29 07:17:52;;;;;;;2.63;1.17;;;16.20;58.10;;;;;;4114633;28;20045;-62
2021/05/29 07:19:55;;;;;;;3.35;1.90;;;16.20;58.50;;;;;;4112880;28;20601;-62
2021/05/29 07:21:57;;;;;;;5.15;2.15;;;16.20;58.90;;;;;;4119076;28;20557;-61
2021/05/29 07:23:59;;;;;;;4.53;1.65;;;16.20;59.30;;;;;;4126327;28;20574;-62
2021/05/29 07:26:01;;;;;;;3.78;1.67;;;16.20;59.70;;;;;;4134370;28;20463;-60
2021/05/29 07:28:04;;;;;;;4.93;1.80;;;16.20;60.00;;;;;;4117295;28;20387;-61
2021/05/29 07:30:07;;;;;;;6.40;2.30;;;16.20;60.10;;;;;;4123150;28;20369;-61
2021/05/29 07:32:11;;;;;;;5.30;2.17;;;16.20;60.70;;;;;;4125410;28;20265;-61
2021/05/29 07:34:14;;;;;;;5.20;2.00;;;16.20;60.90;;;;;;4132685;28;20072;-61
2021/05/29 07:36:16;;;;;;;5.05;2.20;;;16.20;61.20;;;;;;4131751;28;20041;-62
2021/05/29 07:38:18;;;;;;;4.00;1.90;;;16.20;61.40;;;;;;4130965;28;20156;-61
2021/05/29 07:40:20;;;;;;;3.78;2.20;;;16.20;61.50;;;;;;4130738;28;20466;-61
2021/05/29 07:42:22;;;;;;;4.28;1.60;;;16.20;61.70;;;;;;4132038;28;20316;-60
2021/05/29 07:44:24;;;;;;;3.55;2.03;;;16.20;61.90;;;;;;4126486;28;20041;-61
2021/05/29 07:46:27;;;;;;;4.68;1.83;;;16.20;62.20;;;;;;4116100;28;20998;-61
2021/05/29 07:48:29;;;;;;;2.95;1.70;;;16.20;62.40;;;;;;4112585;28;20112;-61
2021/05/29 07:50:31;;;;;;;4.63;2.40;;;16.20;62.40;;;;;;4115590;28;20041;-61
2021/05/29 07:52:33;;;;;;;4.18;1.60;;;16.20;62.50;;;;;;4115130;28;20037;-61
2021/05/29 07:54:35;;;;;;;3.97;2.10;;;16.20;62.70;;;;;;4118184;28;20392;-60
2021/05/29 07:56:38;;;;;;;2.33;1.80;;;16.20;63.00;;;;;;4114744;28;20615;-62
2021/05/29 07:58:43;;;;;;;6.97;2.83;;;16.20;63.20;;;;;;4126288;28;20459;-61
2021/05/29 08:00:51;;;;;;;4.82;3.70;;;16.20;63.70;;;;;;4126811;28;20989;-61
2021/05/29 08:02:53;;;;;;;6.13;3.70;;;16.20;64.20;;;;;;4119562;28;20057;-61
2021/05/29 08:04:56;;;;;;;5.25;4.50;;;16.20;64.40;;;;;;4113235;28;20037;-62
2021/05/29 08:06:58;;;;;;;6.30;5.23;;;16.20;64.70;;;;;;4115362;28;20050;-61
2021/05/29 08:09:00;;;;;;;9.93;5.95;;;16.20;65.10;;;;;;4121611;28;20059;-62
2021/05/29 08:11:04;;;;;;;7.22;6.18;;;16.20;65.40;;;;;;4128497;28;20049;-61
2021/05/29 08:13:06;;;;;;;6.93;6.22;;;16.20;65.60;;;;;;4122649;28;20447;-61
2021/05/29 08:15:08;;;;;;;8.65;6.78;;;16.30;65.60;;;;;;4128686;28;20435;-61
2021/05/29 08:17:11;;;;;;;7.73;6.33;;;16.30;65.70;;;;;;4128622;28;20041;-61
2021/05/29 08:19:13;;;;;;;7.78;6.30;;;16.30;65.80;;;;;;4134182;28;20271;-62
2021/05/29 08:21:16;;;;;;;8.20;7.10;;;16.30;66.00;;;;;;4135042;28;20038;-61
2021/05/29 08:23:19;;;;;;;8.00;7.15;;;16.20;66.00;;;;;;4135174;28;20318;-61
2021/05/29 08:25:21;;;;;;;7.72;6.72;;;16.20;66.00;;;;;;4135359;28;20060;-61
2021/05/29 08:27:23;;;;;;;8.93;6.97;;;16.30;66.00;;;;;;4120743;28;20127;-61
2021/05/29 08:29:25;;;;;;;7.60;6.68;;;16.30;66.30;;;;;;4126176;28;20034;-60
2021/05/29 08:31:27;;;;;;;7.00;6.30;;;16.30;66.20;;;;;;4138434;28;20056;-61
2021/05/29 08:33:29;;;;;;;6.20;5.60;;;16.30;66.30;;;;;;4119622;28;20107;-61
2021/05/29 08:35:32;;;;;;;6.65;5.95;;;16.30;66.20;;;;;;4125986;28;20037;-61
2021/05/29 08:37:34;;;;;;;6.38;5.20;;;16.30;66.70;;;;;;4134718;28;20048;-61
2021/05/29 08:39:36;;;;;;;6.55;5.28;;;16.20;66.20;;;;;;4120257;28;20366;-61
2021/05/29 08:41:39;;;;;;;5.95;4.85;;;16.30;66.10;;;;;;4118276;28;20049;-61
2021/05/29 08:43:42;;;;;;;5.67;4.27;;;16.20;65.90;;;;;;4118221;28;20049;-62
2021/05/29 08:45:47;;;;;;;6.05;4.50;;;16.30;65.70;;;;;;4134601;28;20037;-61
2021/05/29 08:47:49;;;;;;;6.05;4.28;;;16.30;65.60;;;;;;4133100;28;20687;-61
2021/05/29 08:49:51;;;;;;;5.47;3.78;;;16.30;65.30;;;;;;4131115;28;20398;-61
2021/05/29 08:51:56;;;;;;;5.97;4.22;;;16.30;65.30;;;;;;4135076;28;20033;-61
2021/05/29 08:54:00;;;;;;;5.60;3.92;;;16.20;65.00;;;;;;4130329;28;20048;-61
2021/05/29 08:56:03;;;;;;;4.78;3.70;;;16.30;64.80;;;;;;4125547;28;20341;-61
2021/05/29 08:58:05;;;;;;;9.73;3.88;;;16.30;64.60;;;;;;4135119;28;20029;-62
2021/05/29 09:00:10;;;;;;;4.78;3.70;;;16.30;64.50;;;;;;4121705;28;20128;-61
2021/05/29 09:02:13;;;;;;;4.82;3.47;;;16.20;64.20;;;;;;4117371;28;20049;-61
2021/05/29 09:04:17;;;;;;;4.38;3.20;;;16.20;64.00;;;;;;4121337;28;20044;-61
2021/05/29 09:06:40;;;;;;;5.30;3.13;;;16.20;63.80;;;;;;4133506;28;20033;-61
2021/05/29 09:08:56;;;;;;;4.85;3.00;;;16.20;63.60;;;;;;4128856;28;20040;-60
2021/05/29 09:10:59;;;;;;;3.92;3.03;;;16.20;63.70;;;;;;4134487;28;20585;-61
2021/05/29 09:13:07;;;;;;;3.80;2.72;;;16.20;64.20;;;;;;4134050;28;20672;-62
2021/05/29 09:15:10;;;;;;;4.75;2.75;;;16.20;64.50;;;;;;4132240;28;20079;-62
2021/05/29 09:17:25;;;;;;;4.45;3.15;;;16.20;64.40;;;;;;4130369;28;20048;-61
2021/05/29 09:19:27;;;;;;;4.15;2.38;;;16.20;64.20;;;;;;4119648;28;20449;-61
2021/05/29 09:21:33;;;;;;;5.35;2.40;;;16.20;63.80;;;;;;4133888;28;20414;-62
2021/05/29 09:23:45;;;;;;;5.45;2.20;;;16.20;63.60;;;;;;4123317;28;20168;-61
2021/05/29 09:25:56;;;;;;;4.07;2.25;;;16.20;63.30;;;;;;4119089;28;20494;-60
2021/05/29 09:28:03;;;;;;;5.65;2.30;;;16.20;63.00;;;;;;4116882;28;20026;-62
2021/05/29 09:30:08;;;;;;;3.75;1.88;;;16.20;62.90;;;;;;4117475;28;20030;-61
2021/05/29 09:32:10;;;;;;;3.20;1.67;;;16.20;62.70;;;;;;4121826;28;20127;-61
2021/05/29 09:34:13;;;;;;;4.18;2.15;;;16.20;62.50;;;;;;4132773;28;20141;-61
2021/05/29 09:36:16;;;;;;;5.20;2.70;;;16.20;62.60;;;;;;4121936;28;20033;-61
2021/05/29 09:38:18;;;;;;;7.35;2.35;;;16.10;62.40;;;;;;4120843;28;20050;-61
2021/05/29 09:40:20;;;;;;;6.53;2.65;;;16.10;62.30;;;;;;4123961;28;20033;-60
2021/05/29 09:42:30;;;;;;;3.88;2.03;;;16.10;62.10;;;;;;4125617;28;20045;-61
2021/05/29 09:44:33;;;;;;;4.63;2.30;;;16.10;62.00;;;;;;4123563;28;20049;-61
2021/05/29 09:46:53;;;;;;;4.05;2.47;;;16.10;61.90;;;;;;4127891;28;21176;-61
2021/05/29 09:48:57;;;;;;;5.85;2.55;;;16.10;61.90;;;;;;4120395;28;20517;-61
2021/05/29 09:51:11;;;;;;;5.70;2.60;;;16.10;61.90;;;;;;4117890;28;20160;-61
2021/05/29 09:53:28;;;;;;;3.95;2.63;;;16.10;61.90;;;;;;4121201;28;20071;-62
2021/05/29 09:55:39;;;;;;;5.15;2.97;;;16.10;61.90;;;;;;4112971;28;20607;-61
2021/05/29 09:57:57;;;;;;;6.03;2.55;;;16.10;61.90;;;;;;4126703;28;20033;-61
2021/05/29 10:00:02;;;;;;;5.47;2.80;;;16.10;61.90;;;;;;4126030;28;20124;-61
2021/05/29 10:02:15;;;;;;;7.10;3.38;;;16.10;61.90;;;;;;4130112;28;20099;-61
2021/05/29 10:04:30;;;;;;;5.82;3.30;;;16.10;61.90;;;;;;4131242;28;20484;-61
2021/05/29 10:06:32;;;;;;;5.78;3.30;;;16.10;61.80;;;;;;4133321;28;20045;-61
2021/05/29 10:08:34;;;;;;;4.15;3.20;;;16.10;61.90;;;;;;4122877;28;20589;-62
2021/05/29 10:10:37;;;;;;;6.47;3.30;;;16.10;61.90;;;;;;4117894;28;20125;-61
2021/05/29 10:12:39;;;;;;;5.57;3.08;;;16.10;61.90;;;;;;4110424;28;20146;-61
2021/05/29 10:14:42;;;;;;;4.57;3.30;;;16.10;61.80;;;;;;4109234;28;20043;-61
2021/05/29 10:16:46;;;;;;;6.78;3.33;;;16.10;61.80;;;;;;4098088;28;20026;-61
2021/05/29 10:18:53;;;;;;;;;;;16.00;61.70;;;;;;4116808;28;20061;-61
2021/05/29 10:20:56;;;;;;;4.68;3.35;;;16.10;61.70;;;;;;4117821;28;19921;-62
2021/05/29 10:23:00;;;;;;;8.27;3.70;;;16.00;61.80;;;;;;4099070;28;20562;-61
2021/05/29 10:25:05;;;;;;;10.35;5.30;;;16.00;62.10;;;;;;4115728;28;20117;-61
2021/05/29 10:27:12;;;;;;;22.65;9.80;;;16.10;62.30;;;;;;4102435;28;20496;-61
2021/05/29 10:29:15;;;;;;;44.45;18.05;;;16.00;62.30;;;;;;4097101;28;20054;-60
2021/05/29 10:31:19;;;;;;;114.72;38.55;;;16.00;62.40;;;;;;4101439;28;20137;-61
2021/05/29 10:33:23;;;;;;;145.55;44.08;;;16.00;62.30;;;;;;4113692;28;20507;-61
2021/05/29 10:35:37;;;;;;;144.18;39.08;;;16.00;62.30;;;;;;4114468;28;20060;-61
2021/05/29 10:38:00;;;;;;;153.52;40.67;;;16.00;62.20;;;;;;4114676;28;20508;-61
2021/05/29 10:40:39;;;;;;;124.57;34.15;;;16.00;62.10;;;;;;4110485;28;20081;-61
2021/05/29 10:42:41;;;;;;;102.47;29.73;;;16.00;61.90;;;;;;4107129;28;20669;-61
2021/05/29 10:44:45;;;;;;;98.97;30.33;;;16.00;61.70;;;;;;4102767;28;20050;-61
2021/05/29 10:47:03;;;;;;;107.25;31.27;;;16.00;61.50;;;;;;4100987;28;20038;-60
2021/05/29 10:49:05;;;;;;;93.78;26.42;;;16.00;61.40;;;;;;4101155;28;20038;-61
2021/05/29 10:51:10;;;;;;;77.80;23.52;;;16.00;61.20;;;;;;4099504;28;20046;-60
2021/05/29 10:53:45;;;;;;;78.05;24.08;;;16.00;61.10;;;;;;4098258;28;20567;-60
2021/05/29 10:55:47;;;;;;;60.95;18.88;;;16.00;61.00;;;;;;4100017;28;20046;-60